createdAt,value
2023-05-14T00:06:54.464Z,87
2023-05-14T00:26:54.393Z,88.3
2023-05-14T00:46:58.951Z,89.9
2023-05-14T01:06:54.536Z,90.2
2023-05-14T01:26:54.672Z,90.2
2023-05-14T01:46:54.618Z,90.7
2023-05-14T02:06:54.716Z,90.8
2023-05-14T02:26:54.721Z,91.8
2023-05-14T02:46:54.891Z,90.9
2023-05-14T03:06:54.825Z,87.7
2023-05-14T03:26:55.061Z,87.9
2023-05-14T03:46:54.852Z,86.2
2023-05-14T04:06:54.926Z,84.7
2023-05-14T04:26:54.929Z,83.1
2023-05-14T04:46:54.966Z,80.4
2023-05-14T05:06:54.934Z,80.5
2023-05-14T05:26:55.134Z,80.1
2023-05-14T05:46:55.084Z,80.1
2023-05-14T06:06:55.221Z,79.7
2023-05-14T06:26:55.180Z,77.6
2023-05-14T06:46:55.226Z,74
2023-05-14T07:06:55.892Z,71.2
2023-05-14T07:26:55.565Z,70.9
2023-05-14T07:46:56.015Z,69.1
2023-05-14T08:06:55.314Z,68.6
2023-05-14T08:26:55.375Z,69.6
2023-05-14T08:46:55.444Z,68.9
2023-05-14T09:06:55.614Z,65.3
2023-05-14T09:46:55.501Z,60.7
2023-05-14T10:06:55.519Z,58.1
2023-05-14T10:26:55.482Z,50.7
2023-05-14T10:46:55.513Z,48.7
2023-05-14T11:06:55.561Z,49.3
2023-05-14T11:26:55.985Z,42.5
2023-05-14T11:46:55.819Z,40.2
2023-05-14T12:06:55.636Z,40.9
2023-05-14T12:26:55.598Z,38.5
2023-05-14T13:06:55.731Z,41.8
2023-05-14T13:26:55.763Z,43.2
2023-05-14T13:46:55.964Z,41.5
2023-05-14T14:06:56.033Z,38.1
2023-05-14T14:26:55.956Z,42.6
2023-05-14T15:06:55.999Z,48.7
2023-05-14T15:26:55.888Z,48
2023-05-14T15:46:55.820Z,47.1
2023-05-14T16:06:55.996Z,48.9
2023-05-14T16:26:56.097Z,51
2023-05-14T16:46:55.982Z,52.2
2023-05-14T17:06:55.890Z,55.1
2023-05-14T17:26:56.140Z,59.7
2023-05-14T17:46:56.244Z,61.3
2023-05-14T18:06:56.243Z,61
2023-05-14T18:26:56.165Z,62.3
2023-05-14T18:46:56.221Z,64.1
2023-05-14T19:06:56.273Z,66.2
2023-05-14T19:26:56.134Z,67.9
2023-05-14T19:46:56.496Z,69.2
2023-05-14T20:06:56.220Z,70.4
2023-05-14T20:26:56.622Z,71
2023-05-14T20:46:56.451Z,72.3
2023-05-14T21:06:56.414Z,75.1
2023-05-14T21:26:56.525Z,76.9
2023-05-14T21:46:57.655Z,76.9
2023-05-14T22:06:57.493Z,77.6
2023-05-14T22:26:56.450Z,78.6
2023-05-14T23:06:56.546Z,80.5
2023-05-14T23:26:56.879Z,82.4
2023-05-14T23:46:56.602Z,84.2
